< < Back
Terminal Aerodrome Forecast


Current Version              Previous Versions:   1  2  3  4  5  6  7  8  9  

Terminal Aerodrome Forecast

155
FTUS42 KGSP 260540
TAFHKY
TAF
KHKY 260540Z 2606/2706 23003KT P6SM SCT060
      TEMPO 2610/2612 00000KT 5SM BR FEW100
     FM261200 VRB02KT P6SM FEW140
     FM261800 22004KT P6SM BKN045 PROB30 2619/2701 4SM -TSRA
      OVC025CB
     FM270300 23003KT P6SM SCT070=

Latest METAR

975
SAUS70 KWBC 261700 RRF
MTRHKY
METAR KHKY 261653Z 00000KT 10SM CLR 33/22 A3005 RMK AO2 SLP150
T03280222


USA.gov is the U.S. government's official web portal to all federal, state and local government web resources and services.